Time;durP1;ratioP1;P1;durP2;ratioP2;P2;SDS_P1;SDS_P2;PMS_P1;PMS_P2;Temp;Humidity;BMP_temperature;BMP_pressure;BME280_temperature;BME280_humidity;BME280_pressure;Samples;Min_cycle;Max_cycle;Signal;HPM_P1;HPM_P2
2023/01/12 00:00:41;;;;;;;10.30;8.20;;;;;;;;;;102519;1339;30571;-48
2023/01/12 00:03:24;;;;;;;9.30;7.60;;;;;;;;;;102493;1337;329736;-46
2023/01/12 00:06:06;;;;;;;9.80;7.50;;;;;;;;;;102756;1337;29646;-45
2023/01/12 00:08:41;;;;;;;10.20;7.70;;;;;;;;;;102787;1337;28788;-45
2023/01/12 00:11:17;;;;;;;9.70;7.70;;;;;;;;;;102749;1337;30415;-47
2023/01/12 00:13:51;;;;;;;9.70;7.40;;;;;;;;;;102528;1339;41546;-44
2023/01/12 00:16:39;;;;;;;9.80;7.90;;;;;;;;;;102537;1339;29606;-45
2023/01/12 00:19:16;;;;;;;10.10;8.00;;;;;;;;;;102527;1339;28889;-44
2023/01/12 00:21:58;;;;;;;9.60;7.60;;;;;;;;;;102514;1336;30532;-44
2023/01/12 00:24:35;;;;;;;10.30;7.70;;;;;;;;;;102776;1337;31076;-46
2023/01/12 00:27:13;;;;;;;9.50;7.30;;;;;;;;;;102802;1337;29911;-46
2023/01/12 00:29:48;;;;;;;9.50;7.50;;;;;;;;;;102764;1337;28801;-44
2023/01/12 00:32:23;;;;;;;9.80;7.80;;;;;;;;;;102690;1339;30216;-44
2023/01/12 00:34:58;;;;;;;10.00;7.80;;;;;;;;;;102513;1339;31174;-44
2023/01/12 00:37:35;;;;;;;9.60;7.60;;;;;;;;;;102540;1339;29715;-44
2023/01/12 00:40:14;;;;;;;9.90;7.90;;;;;;;;;;102544;1339;29089;-46
2023/01/12 00:45:40;;;;;;;9.70;7.60;;;;;;;;;;102775;1337;32248;-44
2023/01/12 00:48:15;;;;;;;9.10;7.40;;;;;;;;;;102773;1337;29712;-45
2023/01/12 00:50:51;;;;;;;9.70;7.70;;;;;;;;;;102765;1337;29369;-44
2023/01/12 00:53:28;;;;;;;9.50;7.50;;;;;;;;;;102601;1339;30352;-44
2023/01/12 00:56:07;;;;;;;9.40;7.20;;;;;;;;;;102544;1339;31005;-46
2023/01/12 00:58:42;;;;;;;9.70;7.50;;;;;;;;;;102524;1340;29887;-45
2023/01/12 01:01:16;;;;;;;10.20;7.90;;;;;;;;;;102519;1339;28858;-44
2023/01/12 01:03:51;;;;;;;9.60;7.50;;;;;;;;;;102451;1337;30477;-45
2023/01/12 01:06:27;;;;;;;9.70;7.70;;;;;;;;;;102760;1337;30615;-44
2023/01/12 01:09:04;;;;;;;9.90;7.60;;;;;;;;;;102777;1336;29712;-45
2023/01/12 01:11:39;;;;;;;9.20;7.50;;;;;;;;;;102779;1337;28971;-47
2023/01/12 01:14:14;;;;;;;9.50;7.60;;;;;;;;;;102551;1339;30126;-45
2023/01/12 01:16:51;;;;;;;9.20;7.10;;;;;;;;;;102324;1338;31238;-46
2023/01/12 01:19:26;;;;;;;9.10;7.50;;;;;;;;;;102521;1339;29723;-46
2023/01/12 01:22:03;;;;;;;9.70;7.60;;;;;;;;;;102497;1338;28679;-44
2023/01/12 01:24:38;;;;;;;9.20;7.80;;;;;;;;;;102697;1336;30507;-45
2023/01/12 01:27:15;;;;;;;9.10;7.20;;;;;;;;;;102770;1337;30906;-44
2023/01/12 01:29:50;;;;;;;10.40;7.90;;;;;;;;;;102788;1337;29483;-46
2023/01/12 01:32:25;;;;;;;9.70;7.30;;;;;;;;;;102741;1336;28631;-46
2023/01/12 01:34:59;;;;;;;9.70;7.80;;;;;;;;;;102517;1339;30268;-44
2023/01/12 01:37:34;;;;;;;9.40;7.10;;;;;;;;;;102558;1340;30984;-44
2023/01/12 01:40:12;;;;;;;10.20;7.80;;;;;;;;;;102554;1340;29951;-45
2023/01/12 01:42:47;;;;;;;9.50;7.30;;;;;;;;;;102563;1339;28877;-44
2023/01/12 01:45:21;;;;;;;9.40;7.80;;;;;;;;;;102716;1336;30793;-44
2023/01/12 01:48:00;;;;;;;9.30;7.20;;;;;;;;;;102787;1337;30628;-45
2023/01/12 01:50:38;;;;;;;8.90;7.10;;;;;;;;;;102777;1337;29534;-45
2023/01/12 01:53:21;;;;;;;9.00;7.50;;;;;;;;;;102792;1337;30158;-45
2023/01/12 01:55:59;;;;;;;9.40;7.20;;;;;;;;;;102267;1340;41739;-44
2023/01/12 01:58:41;;;;;;;9.10;7.20;;;;;;;;;;102311;1340;31222;-44
2023/01/12 02:01:15;;;;;;;9.10;7.40;;;;;;;;;;102299;1340;29804;-45
2023/01/12 02:03:50;;;;;;;9.10;7.20;;;;;;;;;;102283;1340;28898;-44
2023/01/12 02:06:26;;;;;;;9.20;7.20;;;;;;;;;;102665;1337;176536;-44
2023/01/12 02:09:05;;;;;;;9.30;7.10;;;;;;;;;;102787;1337;31068;-45
2023/01/12 02:17:42;;;;;;;9.10;7.00;;;;;;;;;;102328;1338;30437;-46
2023/01/12 02:21:17;;;;;;;9.20;7.20;;;;;;;;;;102554;1339;30985;-44
2023/01/12 02:24:46;;;;;;;8.80;6.90;;;;;;;;;;102173;1340;29965;-45
2023/01/12 02:27:45;;;;;;;8.60;7.00;;;;;;;;;;102614;1337;176783;-46
2023/01/12 02:31:00;;;;;;;9.00;6.80;;;;;;;;;;102766;1337;30343;-45
2023/01/12 02:33:51;;;;;;;9.20;7.10;;;;;;;;;;102759;1337;31950;-46
2023/01/12 02:36:36;;;;;;;8.70;6.90;;;;;;;;;;102624;1339;30977;-45
2023/01/12 02:39:18;;;;;;;8.70;6.60;;;;;;;;;;102520;1339;28896;-46
2023/01/12 02:45:05;;;;;;;8.90;7.00;;;;;;;;;;102538;1339;31927;-44
2023/01/12 02:47:47;;;;;;;9.40;6.60;;;;;;;;;;102730;1336;29686;-46
2023/01/12 02:50:29;;;;;;;9.20;7.20;;;;;;;;;;102735;1337;28825;-48
2023/01/12 02:53:12;;;;;;;8.70;6.70;;;;;;;;;;102760;1337;30329;-45
2023/01/12 02:55:48;;;;;;;8.40;6.80;;;;;;;;;;102690;1337;33558;-45
2023/01/12 02:58:29;;;;;;;8.40;6.50;;;;;;;;;;102514;1338;29719;-44
2023/01/12 03:01:05;;;;;;;8.50;6.30;;;;;;;;;;102485;1339;28832;-44
2023/01/12 03:03:41;;;;;;;8.60;6.80;;;;;;;;;;102546;1339;30333;-46
2023/01/12 03:06:19;;;;;;;8.40;6.60;;;;;;;;;;102544;1337;30649;-46
2023/01/12 03:08:55;;;;;;;8.30;6.50;;;;;;;;;;102741;1337;29796;-46
2023/01/12 03:11:29;;;;;;;8.90;6.60;;;;;;;;;;102763;1336;28996;-45
2023/01/12 03:14:06;;;;;;;8.80;6.60;;;;;;;;;;102766;1337;30426;-45
2023/01/12 03:16:42;;;;;;;8.10;6.10;;;;;;;;;;102651;1337;31153;-45
2023/01/12 03:19:24;;;;;;;8.30;6.40;;;;;;;;;;102521;1339;31119;-46
2023/01/12 03:22:01;;;;;;;8.50;6.60;;;;;;;;;;102521;1339;29084;-44
2023/01/12 03:24:40;;;;;;;8.90;6.60;;;;;;;;;;102532;1339;30504;-44
2023/01/12 03:27:20;;;;;;;8.10;6.00;;;;;;;;;;102588;1336;31207;-46
2023/01/12 03:30:00;;;;;;;8.30;6.20;;;;;;;;;;102721;1337;29671;-44
2023/01/12 03:32:36;;;;;;;8.10;6.30;;;;;;;;;;102783;1337;28890;-44
2023/01/12 03:35:11;;;;;;;7.60;6.30;;;;;;;;;;102756;1337;30320;-44
2023/01/12 03:37:54;;;;;;;8.50;6.00;;;;;;;;;;102596;1337;30944;-45
2023/01/12 03:40:37;;;;;;;7.90;6.10;;;;;;;;;;102499;1338;29646;-44
2023/01/12 03:43:18;;;;;;;7.90;5.80;;;;;;;;;;102532;1339;29040;-46
2023/01/12 03:45:59;;;;;;;8.50;6.40;;;;;;;;;;102545;1339;30367;-46
2023/01/12 03:48:40;;;;;;;7.80;5.90;;;;;;;;;;102582;1337;176582;-46
2023/01/12 03:51:20;;;;;;;7.70;5.80;;;;;;;;;;102765;1337;29874;-49
2023/01/12 03:53:56;;;;;;;8.20;6.20;;;;;;;;;;102155;1337;894984;-46
2023/01/12 03:56:35;;;;;;;8.30;6.40;;;;;;;;;;102749;1337;30298;-45
2023/01/12 03:59:11;;;;;;;7.90;5.80;;;;;;;;;;102472;1339;42371;-46
2023/01/12 04:01:48;;;;;;;7.50;5.80;;;;;;;;;;102403;1339;183467;-45
2023/01/12 04:04:23;;;;;;;7.80;5.70;;;;;;;;;;102407;1339;177259;-46
2023/01/12 04:06:58;;;;;;;7.50;5.70;;;;;;;;;;102493;1337;30500;-47
2023/01/12 04:09:36;;;;;;;7.60;5.80;;;;;;;;;;102774;1337;42948;-46
2023/01/12 04:12:11;;;;;;;7.90;5.90;;;;;;;;;;102758;1337;29660;-47
2023/01/12 04:14:47;;;;;;;8.00;5.60;;;;;;;;;;102766;1337;28822;-45
2023/01/12 04:17:24;;;;;;;7.80;5.80;;;;;;;;;;102726;1337;30390;-45
2023/01/12 04:19:59;;;;;;;7.60;5.70;;;;;;;;;;102497;1340;31181;-45
2023/01/12 04:22:45;;;;;;;8.30;6.20;;;;;;;;;;102503;1339;31008;-45
2023/01/12 04:25:22;;;;;;;7.70;5.60;;;;;;;;;;102516;1340;28819;-46
2023/01/12 04:28:00;;;;;;;6.60;5.10;;;;;;;;;;102568;1337;30592;-45
2023/01/12 04:30:36;;;;;;;7.70;5.60;;;;;;;;;;102794;1337;30757;-45
2023/01/12 04:33:11;;;;;;;7.60;5.80;;;;;;;;;;102777;1337;29609;-44
2023/01/12 04:35:48;;;;;;;7.20;5.30;;;;;;;;;;102846;1334;28810;-46
2023/01/12 04:38:23;;;;;;;7.40;5.60;;;;;;;;;;102664;1336;176783;-45
2023/01/12 04:40:58;;;;;;;7.70;5.30;;;;;;;;;;102762;1336;31188;-44
2023/01/12 04:43:33;;;;;;;7.10;5.10;;;;;;;;;;102775;1336;29296;-45
2023/01/12 04:46:10;;;;;;;6.90;5.10;;;;;;;;;;102649;1336;176836;-45
2023/01/12 04:48:46;;;;;;;7.60;5.70;;;;;;;;;;102793;1334;30487;-45
2023/01/12 04:51:21;;;;;;;7.30;5.30;;;;;;;;;;102840;1334;30614;-46
2023/01/12 04:53:56;;;;;;;7.30;5.20;;;;;;;;;;102853;1334;29839;-46
2023/01/12 04:56:30;;;;;;;7.00;5.30;;;;;;;;;;102849;1334;28869;-46
2023/01/12 04:59:07;;;;;;;7.80;5.50;;;;;;;;;;102743;1336;30254;-45
2023/01/12 05:01:42;;;;;;;7.10;5.10;;;;;;;;;;102726;1336;30988;-44
2023/01/12 05:04:17;;;;;;;6.80;5.10;;;;;;;;;;102761;1336;29302;-45
2023/01/12 05:06:52;;;;;;;7.40;4.90;;;;;;;;;;102791;1336;29075;-45
2023/01/12 05:12:21;;;;;;;7.50;5.00;;;;;;;;;;102854;1334;30956;-44
2023/01/12 05:14:55;;;;;;;6.50;4.90;;;;;;;;;;102862;1334;30907;-45
2023/01/12 05:17:30;;;;;;;6.60;4.80;;;;;;;;;;102870;1334;28890;-45
2023/01/12 05:20:06;;;;;;;6.90;5.00;;;;;;;;;;102792;1334;29946;-44
2023/01/12 05:22:40;;;;;;;6.40;4.70;;;;;;;;;;102796;1336;31456;-45
2023/01/12 05:25:15;;;;;;;7.10;4.90;;;;;;;;;;102782;1336;29794;-46
2023/01/12 05:27:49;;;;;;;6.40;4.70;;;;;;;;;;102817;1336;29247;-46
2023/01/12 05:30:24;;;;;;;7.20;4.70;;;;;;;;;;102803;1334;30736;-46
2023/01/12 05:32:58;;;;;;;7.40;4.90;;;;;;;;;;102869;1334;31104;-44
2023/01/12 05:35:33;;;;;;;6.90;4.70;;;;;;;;;;102837;1334;29771;-46
2023/01/12 05:38:07;;;;;;;6.40;4.70;;;;;;;;;;102867;1334;29177;-49
2023/01/12 05:40:41;;;;;;;6.60;4.80;;;;;;;;;;102736;1336;30406;-46
2023/01/12 05:46:10;;;;;;;7.20;4.70;;;;;;;;;;102763;1336;29864;-45
2023/01/12 05:48:44;;;;;;;6.90;4.70;;;;;;;;;;102753;1337;28806;-49
2023/01/12 05:51:19;;;;;;;6.70;4.60;;;;;;;;;;102684;1334;176768;-42
2023/01/12 05:53:54;;;;;;;6.60;4.60;;;;;;;;;;102884;1334;30905;-44
2023/01/12 05:56:31;;;;;;;6.70;4.90;;;;;;;;;;102872;1334;29689;-42
2023/01/12 05:59:06;;;;;;;6.30;4.40;;;;;;;;;;102879;1334;28824;-42
2023/01/12 06:01:41;;;;;;;6.70;4.50;;;;;;;;;;102496;1338;37737;-42
2023/01/12 06:04:15;;;;;;;6.90;4.30;;;;;;;;;;102389;1339;176819;-42
2023/01/12 06:06:50;;;;;;;6.80;4.50;;;;;;;;;;102516;1339;29827;-45
2023/01/12 06:09:26;;;;;;;6.70;4.50;;;;;;;;;;102510;1339;30210;-43
2023/01/12 06:14:53;;;;;;;6.80;4.50;;;;;;;;;;102851;1334;32695;-42
2023/01/12 06:17:27;;;;;;;6.20;4.10;;;;;;;;;;102859;1334;29704;-42
2023/01/12 06:20:01;;;;;;;6.10;4.30;;;;;;;;;;102810;1334;29288;-42
2023/01/12 06:22:36;;;;;;;6.50;4.50;;;;;;;;;;102764;1336;31790;-42
2023/01/12 06:25:16;;;;;;;5.90;4.30;;;;;;;;;;102677;1336;176785;-45
2023/01/12 06:27:51;;;;;;;6.00;4.10;;;;;;;;;;102775;1337;30855;-47
2023/01/12 06:30:26;;;;;;;6.80;3.80;;;;;;;;;;102746;1334;31230;-46
2023/01/12 06:33:04;;;;;;;6.80;4.20;;;;;;;;;;102815;1334;31504;-46
2023/01/12 06:35:38;;;;;;;6.20;4.30;;;;;;;;;;102876;1334;30968;-47
2023/01/12 06:38:15;;;;;;;6.10;4.10;;;;;;;;;;102841;1334;31004;-46
2023/01/12 06:40:53;;;;;;;6.60;4.40;;;;;;;;;;102796;1334;29966;-47
2023/01/12 06:43:27;;;;;;;6.20;4.20;;;;;;;;;;102751;1337;31556;-48
2023/01/12 06:46:01;;;;;;;6.80;4.20;;;;;;;;;;102758;1337;32487;-45
2023/01/12 06:48:38;;;;;;;6.20;4.20;;;;;;;;;;102756;1336;30923;-48
2023/01/12 06:51:13;;;;;;;5.50;3.90;;;;;;;;;;102745;1334;30207;-47
2023/01/12 06:53:47;;;;;;;6.70;4.40;;;;;;;;;;102850;1334;31652;-46
2023/01/12 06:56:21;;;;;;;5.90;4.20;;;;;;;;;;102840;1334;31940;-48
2023/01/12 06:58:55;;;;;;;6.20;4.10;;;;;;;;;;102841;1334;30768;-45
2023/01/12 07:01:29;;;;;;;6.20;4.20;;;;;;;;;;102777;1337;30257;-49
2023/01/12 07:04:04;;;;;;;6.50;4.10;;;;;;;;;;102768;1336;31248;-48
2023/01/12 07:06:38;;;;;;;6.30;4.30;;;;;;;;;;102738;1337;32284;-46
2023/01/12 07:09:12;;;;;;;5.90;4.00;;;;;;;;;;102772;1336;31048;-46
2023/01/12 07:11:47;;;;;;;6.10;3.80;;;;;;;;;;102745;1334;30283;-45
2023/01/12 07:14:21;;;;;;;5.80;3.70;;;;;;;;;;102745;1334;177130;-42
2023/01/12 07:16:56;;;;;;;5.90;4.00;;;;;;;;;;102847;1334;33802;-42
2023/01/12 07:19:30;;;;;;;5.80;3.90;;;;;;;;;;102839;1334;31080;-42
2023/01/12 07:22:04;;;;;;;5.80;3.90;;;;;;;;;;102799;1336;30521;-42
2023/01/12 07:24:38;;;;;;;5.90;4.00;;;;;;;;;;102722;1336;31652;-42
2023/01/12 07:27:12;;;;;;;6.60;4.10;;;;;;;;;;102802;1336;33622;-42
2023/01/12 07:29:46;;;;;;;6.00;4.10;;;;;;;;;;102766;1337;31184;-41
2023/01/12 07:32:21;;;;;;;6.80;4.00;;;;;;;;;;102791;1334;30265;-41
2023/01/12 07:34:55;;;;;;;6.30;4.20;;;;;;;;;;102875;1334;31586;-41
2023/01/12 07:37:29;;;;;;;5.80;3.70;;;;;;;;;;102852;1334;32033;-41
2023/01/12 07:40:04;;;;;;;6.10;3.90;;;;;;;;;;102822;1334;30831;-41
2023/01/12 07:42:40;;;;;;;6.00;4.00;;;;;;;;;;102774;1337;29434;-43
2023/01/12 07:45:15;;;;;;;6.50;4.10;;;;;;;;;;102785;1337;31534;-42
2023/01/12 07:47:56;;;;;;;5.90;3.80;;;;;;;;;;102786;1337;32356;-41
2023/01/12 07:50:31;;;;;;;6.50;4.20;;;;;;;;;;102739;1337;31013;-41
2023/01/12 07:53:05;;;;;;;5.90;3.90;;;;;;;;;;102787;1334;30337;-42
2023/01/12 07:55:42;;;;;;;6.80;4.20;;;;;;;;;;102871;1334;31761;-40
2023/01/12 07:58:16;;;;;;;7.50;4.20;;;;;;;;;;102697;1334;176719;-39
2023/01/12 08:00:50;;;;;;;6.50;4.40;;;;;;;;;;102792;1334;30745;-38
2023/01/12 08:03:24;;;;;;;5.90;3.60;;;;;;;;;;102521;1336;326592;-38
2023/01/12 08:05:58;;;;;;;7.50;4.20;;;;;;;;;;102556;1337;30424;-38
2023/01/12 08:08:33;;;;;;;7.00;4.30;;;;;;;;;;102533;1336;31025;-37
2023/01/12 08:11:09;;;;;;;6.80;4.00;;;;;;;;;;102788;1336;29764;-38
2023/01/12 08:13:43;;;;;;;5.90;3.90;;;;;;;;;;102772;1334;30394;-38
2023/01/12 08:16:21;;;;;;;6.30;4.00;;;;;;;;;;102784;1334;30288;-37
2023/01/12 08:19:01;;;;;;;6.10;4.10;;;;;;;;;;102638;1336;45884;-38
2023/01/12 08:21:44;;;;;;;8.30;4.50;;;;;;;;;;102549;1336;43658;-37
2023/01/12 08:24:22;;;;;;;6.70;4.20;;;;;;;;;;102244;1337;40117;-37
2023/01/12 08:27:00;;;;;;;6.40;4.00;;;;;;;;;;102252;1337;41709;-37
2023/01/12 08:29:42;;;;;;;6.80;3.70;;;;;;;;;;102248;1337;44893;-37
2023/01/12 08:32:17;;;;;;;;;;;;;;;;;;102354;1353;44860;-37
2023/01/12 08:34:56;;;;;;;6.20;4.00;;;;;;;;;;102642;1334;49882;-37
2023/01/12 08:37:35;;;;;;;6.30;3.50;;;;;;;;;;102542;1334;41577;-38
2023/01/12 08:40:13;;;;;;;6.00;3.90;;;;;;;;;;102442;1334;176523;-37
2023/01/12 08:42:48;;;;;;;6.00;3.90;;;;;;;;;;102539;1334;43139;-38
2023/01/12 08:45:22;;;;;;;6.30;4.00;;;;;;;;;;102528;1336;51919;-37
2023/01/12 08:47:56;;;;;;;6.80;3.80;;;;;;;;;;102641;1337;43181;-41
2023/01/12 08:50:30;;;;;;;5.70;3.60;;;;;;;;;;102526;1336;45220;-40
2023/01/12 08:53:05;;;;;;;6.60;4.00;;;;;;;;;;102552;1334;45024;-40
2023/01/12 08:55:42;;;;;;;6.10;4.10;;;;;;;;;;102554;1334;49525;-38
2023/01/12 08:58:18;;;;;;;6.40;4.00;;;;;;;;;;102575;1334;41807;-41
2023/01/12 09:00:52;;;;;;;5.70;3.70;;;;;;;;;;102593;1334;45017;-42
2023/01/12 09:03:29;;;;;;;6.40;4.10;;;;;;;;;;102522;1334;43877;-41
2023/01/12 09:06:10;;;;;;;5.90;3.80;;;;;;;;;;102560;1336;40546;-40
2023/01/12 09:08:47;;;;;;;7.20;4.00;;;;;;;;;;102472;1337;44117;-40
2023/01/12 09:11:21;;;;;;;6.60;4.00;;;;;;;;;;102255;1337;44849;-40
2023/01/12 09:13:57;;;;;;;6.60;4.00;;;;;;;;;;102253;1337;45055;-40
2023/01/12 09:16:33;;;;;;;6.10;3.50;;;;;;;;;;102533;1336;41356;-40
2023/01/12 09:19:08;;;;;;;5.40;3.60;;;;;;;;;;102534;1336;43051;-40
2023/01/12 09:21:43;;;;;;;5.90;3.50;;;;;;;;;;102291;1336;45083;-41
2023/01/12 09:24:18;;;;;;;5.80;3.60;;;;;;;;;;102420;1337;43817;-42
2023/01/12 09:26:52;;;;;;;6.00;3.60;;;;;;;;;;102246;1337;40466;-40
2023/01/12 09:29:26;;;;;;;5.80;3.60;;;;;;;;;;102279;1337;41913;-40
2023/01/12 09:31:59;;;;;;;6.10;3.60;;;;;;;;;;102232;1337;45077;-41
2023/01/12 09:34:34;;;;;;;5.80;3.60;;;;;;;;;;102279;1337;43731;-40
2023/01/12 09:37:08;;;;;;;6.40;4.00;;;;;;;;;;102494;1337;42823;-40
2023/01/12 09:39:41;;;;;;;5.70;3.60;;;;;;;;;;102521;1336;42175;-40
2023/01/12 09:48:18;;;;;;;6.00;4.10;;;;;;;;;;102237;1337;40304;-40
2023/01/12 09:50:58;;;;;;;5.70;3.70;;;;;;;;;;102267;1337;42122;-40
2023/01/12 09:53:36;;;;;;;6.10;3.80;;;;;;;;;;102226;1337;46013;-40
2023/01/12 09:56:18;;;;;;;6.00;3.90;;;;;;;;;;102439;1336;44796;-39
2023/01/12 09:59:11;;;;;;;5.80;3.70;;;;;;;;;;102527;1337;40352;-39
2023/01/12 10:01:45;;;;;;;6.30;3.70;;;;;;;;;;102553;1336;42023;-41
2023/01/12 10:04:20;;;;;;;5.90;4.00;;;;;;;;;;102529;1336;44820;-39
2023/01/12 10:06:54;;;;;;;5.50;3.70;;;;;;;;;;102360;1337;53223;-39
2023/01/12 10:09:28;;;;;;;6.70;3.90;;;;;;;;;;102456;1336;40360;-40
2023/01/12 10:12:15;;;;;;;6.60;3.90;;;;;;;;;;102533;1336;41830;-40
2023/01/12 10:15:22;;;;;;;6.00;4.00;;;;;;;;;;102538;1336;45149;-39
2023/01/12 10:18:02;;;;;;;6.40;3.90;;;;;;;;;;102581;1334;55056;-40
2023/01/12 10:20:42;;;;;;;6.10;4.00;;;;;;;;;;102590;1334;40094;-38
2023/01/12 10:23:23;;;;;;;6.00;4.00;;;;;;;;;;102594;1334;42920;-38
2023/01/12 10:26:07;;;;;;;6.00;4.30;;;;;;;;;;102503;1334;45253;-38
2023/01/12 10:28:47;;;;;;;5.80;3.70;;;;;;;;;;102492;1337;43755;-40
2023/01/12 10:31:26;;;;;;;6.50;3.90;;;;;;;;;;102442;1336;176672;-40
2023/01/12 10:34:09;;;;;;;6.00;3.90;;;;;;;;;;102495;1336;43080;-39
2023/01/12 10:36:49;;;;;;;6.20;4.30;;;;;;;;;;102535;1334;45103;-40
2023/01/12 10:39:37;;;;;;;6.90;4.20;;;;;;;;;;102603;1334;43450;-37
2023/01/12 10:45:24;;;;;;;6.20;4.10;;;;;;;;;;102230;1337;41803;-40
2023/01/12 10:47:59;;;;;;;6.40;4.00;;;;;;;;;;102184;1340;45087;-41
2023/01/12 10:50:36;;;;;;;6.20;3.80;;;;;;;;;;102252;1339;43618;-40
2023/01/12 10:53:19;;;;;;;6.00;3.90;;;;;;;;;;102341;1340;40410;-41
2023/01/12 10:55:53;;;;;;;6.80;4.00;;;;;;;;;;102529;1339;30454;-39
2023/01/12 10:58:32;;;;;;;6.60;3.80;;;;;;;;;;102734;1336;31093;-40
2023/01/12 11:01:08;;;;;;;6.70;3.80;;;;;;;;;;102783;1337;29740;-39
2023/01/12 11:03:43;;;;;;;6.00;3.80;;;;;;;;;;102822;1336;28858;-40
2023/01/12 11:06:31;;;;;;;5.70;3.50;;;;;;;;;;102747;1336;30270;-38
2023/01/12 11:09:24;;;;;;;5.70;3.70;;;;;;;;;;102648;1336;41185;-38
2023/01/12 11:12:00;;;;;;;5.70;3.70;;;;;;;;;;102781;1337;30057;-37
2023/01/12 11:14:37;;;;;;;6.20;3.90;;;;;;;;;;102779;1337;28909;-38
2023/01/12 11:17:36;;;;;;;5.00;3.30;;;;;;;;;;102787;1336;30509;-39
2023/01/12 11:20:23;;;;;;;5.50;3.60;;;;;;;;;;102843;1334;30839;-42
2023/01/12 11:23:03;;;;;;;6.90;3.30;;;;;;;;;;102852;1334;29680;-38
2023/01/12 11:25:42;;;;;;;5.90;3.60;;;;;;;;;;102854;1334;31126;-38
2023/01/12 11:28:22;;;;;;;8.90;5.10;;;;;;;;;;102783;1335;30253;-38
2023/01/12 11:31:04;;;;;;;7.50;4.30;;;;;;;;;;102775;1336;31401;-38
2023/01/12 11:33:46;;;;;;;7.50;4.20;;;;;;;;;;102757;1336;29616;-38
2023/01/12 11:36:27;;;;;;;8.10;4.40;;;;;;;;;;102770;1337;28415;-38
2023/01/12 11:39:08;;;;;;;7.60;4.60;;;;;;;;;;102748;1334;30502;-38
2023/01/12 11:44:47;;;;;;;6.90;4.30;;;;;;;;;;102847;1334;29816;-44
2023/01/12 11:47:27;;;;;;;7.90;4.60;;;;;;;;;;102811;1336;29087;-38
2023/01/12 11:50:11;;;;;;;8.30;4.40;;;;;;;;;;102483;1339;40778;-39
2023/01/12 11:52:46;;;;;;;6.70;4.00;;;;;;;;;;102482;1339;32321;-39
2023/01/12 11:55:35;;;;;;;9.10;4.50;;;;;;;;;;102503;1337;30148;-41
2023/01/12 11:58:22;;;;;;;6.60;3.70;;;;;;;;;;102492;1337;29630;-40
2023/01/12 12:01:10;;;;;;;8.10;4.00;;;;;;;;;;102766;1337;30288;-41
2023/01/12 12:04:02;;;;;;;6.90;4.10;;;;;;;;;;102775;1337;33218;-41
2023/01/12 12:06:57;;;;;;;7.20;4.00;;;;;;;;;;102802;1336;30975;-40
2023/01/12 12:09:50;;;;;;;6.80;3.90;;;;;;;;;;102736;1336;29379;-40
2023/01/12 12:12:36;;;;;;;6.40;3.70;;;;;;;;;;102791;1337;30634;-41
2023/01/12 12:15:27;;;;;;;6.70;3.60;;;;;;;;;;102648;1337;30684;-38
2023/01/12 12:18:15;;;;;;;7.30;3.90;;;;;;;;;;102502;1337;29292;-38
2023/01/12 12:21:04;;;;;;;6.80;4.00;;;;;;;;;;102589;1336;39138;-38
2023/01/12 12:23:50;;;;;;;6.70;3.70;;;;;;;;;;102560;1336;41885;-39
2023/01/12 12:26:30;;;;;;;5.70;3.70;;;;;;;;;;102762;1336;30986;-39
2023/01/12 12:29:32;;;;;;;6.60;3.90;;;;;;;;;;102634;1336;30042;-39
2023/01/12 12:32:20;;;;;;;6.20;3.40;;;;;;;;;;102430;1337;30122;-38
2023/01/12 12:35:21;;;;;;;5.90;3.60;;;;;;;;;;102497;1337;30543;-41
2023/01/12 12:38:09;;;;;;;6.00;3.60;;;;;;;;;;102201;1340;45298;-42
2023/01/12 12:47:21;;;;;;;6.20;3.80;;;;;;;;;;102755;1336;30454;-44
2023/01/12 12:50:01;;;;;;;5.90;3.30;;;;;;;;;;102658;1337;30980;-40
2023/01/12 12:52:37;;;;;;;6.10;3.70;;;;;;;;;;102502;1337;29791;-40
2023/01/12 12:55:16;;;;;;;6.20;3.50;;;;;;;;;;102522;1337;28837;-39
2023/01/12 12:58:05;;;;;;;6.70;3.30;;;;;;;;;;102517;1338;30297;-40
2023/01/12 13:00:42;;;;;;;7.00;3.60;;;;;;;;;;102624;1336;31158;-39
2023/01/12 13:03:48;;;;;;;5.90;3.50;;;;;;;;;;102695;1336;176721;-41
2023/01/12 13:06:26;;;;;;;6.20;3.70;;;;;;;;;;102789;1336;31130;-39
2023/01/12 13:09:32;;;;;;;5.40;3.10;;;;;;;;;;102841;1334;30111;-39
2023/01/12 13:12:30;;;;;;;5.80;3.10;;;;;;;;;;102492;1337;41201;-39
2023/01/12 13:15:35;;;;;;;5.70;3.00;;;;;;;;;;102514;1337;29689;-39
2023/01/12 13:19:08;;;;;;;6.00;3.30;;;;;;;;;;102391;1337;182110;-39
2023/01/12 13:22:00;;;;;;;5.90;3.20;;;;;;;;;;102606;1334;30518;-39
2023/01/12 13:24:44;;;;;;;5.60;3.20;;;;;;;;;;102840;1334;31048;-42
2023/01/12 13:27:56;;;;;;;5.90;3.10;;;;;;;;;;98553;1334;3012296;-42
2023/01/12 13:30:54;;;;;;;6.10;3.20;;;;;;;;;;102765;1334;28496;-42
2023/01/12 13:33:34;;;;;;;5.60;3.30;;;;;;;;;;102791;1336;31689;-41
2023/01/12 13:36:12;;;;;;;5.80;3.30;;;;;;;;;;102770;1336;31205;-40
2023/01/12 13:39:04;;;;;;;5.90;3.50;;;;;;;;;;102719;1336;29943;-41
2023/01/12 13:44:36;;;;;;;7.40;3.20;;;;;;;;;;102771;1336;30446;-39
2023/01/12 13:47:19;;;;;;;6.30;3.20;;;;;;;;;;102799;1336;31046;-39
2023/01/12 13:50:01;;;;;;;6.00;3.10;;;;;;;;;;102781;1336;30805;-39
2023/01/12 13:52:38;;;;;;;;;;;;;;;;;;102607;1337;28879;-39
2023/01/12 13:55:26;;;;;;;5.60;3.10;;;;;;;;;;102500;1337;30375;-40
2023/01/12 13:58:03;;;;;;;5.90;3.00;;;;;;;;;;102533;1337;31207;-39
2023/01/12 14:00:38;;;;;;;5.40;3.10;;;;;;;;;;102506;1337;29886;-39
2023/01/12 14:03:40;;;;;;;5.70;3.30;;;;;;;;;;102767;1336;38818;-39
2023/01/12 14:06:25;;;;;;;6.00;3.00;;;;;;;;;;102779;1336;30616;-39
2023/01/12 14:09:15;;;;;;;5.60;3.20;;;;;;;;;;102850;1334;31404;-39
2023/01/12 14:12:26;;;;;;;5.80;3.10;;;;;;;;;;102779;1336;29720;-40
2023/01/12 14:18:23;;;;;;;5.50;3.30;;;;;;;;;;102796;1336;30648;-39
2023/01/12 14:20:59;;;;;;;6.20;3.10;;;;;;;;;;102805;1336;31088;-39
2023/01/12 14:23:34;;;;;;;5.30;3.30;;;;;;;;;;102802;1334;29643;-39
2023/01/12 14:26:16;;;;;;;5.30;3.00;;;;;;;;;;102848;1334;28634;-39
2023/01/12 14:28:53;;;;;;;5.80;2.90;;;;;;;;;;102881;1334;30223;-39
2023/01/12 14:31:34;;;;;;;5.50;3.00;;;;;;;;;;102853;1334;30881;-38
2023/01/12 14:34:23;;;;;;;5.10;2.90;;;;;;;;;;102778;1336;38840;-38
2023/01/12 14:36:58;;;;;;;5.20;2.80;;;;;;;;;;102788;1336;28730;-39
2023/01/12 14:39:40;;;;;;;5.50;3.30;;;;;;;;;;102771;1336;30447;-38
2023/01/12 14:48:33;;;;;;;5.60;3.00;;;;;;;;;;102866;1334;29021;-40
2023/01/12 14:51:26;;;;;;;5.50;3.10;;;;;;;;;;102829;1334;30480;-39
2023/01/12 14:54:16;;;;;;;5.00;3.30;;;;;;;;;;102716;1336;31047;-39
2023/01/12 14:56:58;;;;;;;5.40;3.10;;;;;;;;;;102783;1336;29838;-39
2023/01/12 14:59:35;;;;;;;6.10;2.90;;;;;;;;;;102735;1336;30296;-40
2023/01/12 15:02:29;;;;;;;5.50;3.10;;;;;;;;;;102474;1337;30510;-41
2023/01/12 15:05:21;;;;;;;4.80;2.90;;;;;;;;;;102767;1337;40798;-41
2023/01/12 15:08:01;;;;;;;5.60;3.20;;;;;;;;;;102758;1336;29579;-42
2023/01/12 15:10:43;;;;;;;5.70;3.00;;;;;;;;;;102682;1334;176726;-43
2023/01/12 15:13:29;;;;;;;6.10;3.10;;;;;;;;;;102681;1337;30308;-41
2023/01/12 15:27:38;;;;;;;5.40;3.10;;;;;;;;;;102133;1336;894261;-42
2023/01/12 15:30:21;;;;;;;5.60;2.80;;;;;;;;;;102787;1336;29596;-40
2023/01/12 15:32:56;;;;;;;5.60;3.30;;;;;;;;;;102793;1336;28887;-39
2023/01/12 15:35:37;;;;;;;7.60;3.80;;;;;;;;;;102584;1337;30359;-40
2023/01/12 15:38:15;;;;;;;6.90;3.90;;;;;;;;;;102509;1339;31114;-36
2023/01/12 15:40:50;;;;;;;6.40;3.80;;;;;;;;;;102498;1340;29765;-35
2023/01/12 15:43:26;;;;;;;6.90;3.70;;;;;;;;;;102491;1337;28420;-37
2023/01/12 15:46:01;;;;;;;6.50;3.70;;;;;;;;;;102759;1336;40778;-37
2023/01/12 15:48:35;;;;;;;6.70;4.00;;;;;;;;;;102798;1336;31184;-39
2023/01/12 15:51:14;;;;;;;6.70;3.90;;;;;;;;;;102789;1336;30089;-37
2023/01/12 15:53:49;;;;;;;6.70;4.00;;;;;;;;;;102723;1336;28856;-37
2023/01/12 15:56:24;;;;;;;7.50;4.00;;;;;;;;;;102519;1339;30058;-37
2023/01/12 15:58:58;;;;;;;6.70;3.90;;;;;;;;;;102528;1339;30967;-38
2023/01/12 16:01:41;;;;;;;5.90;3.40;;;;;;;;;;102501;1339;30967;-37
2023/01/12 16:04:21;;;;;;;5.60;3.10;;;;;;;;;;102377;1336;321810;-39
2023/01/12 16:07:15;;;;;;;6.20;3.20;;;;;;;;;;102835;1336;30349;-40
2023/01/12 16:09:53;;;;;;;5.40;3.10;;;;;;;;;;102825;1334;32201;-39
2023/01/12 16:12:28;;;;;;;5.40;2.80;;;;;;;;;;102848;1334;29662;-39
2023/01/12 16:15:03;;;;;;;5.60;3.10;;;;;;;;;;102829;1336;28774;-39
2023/01/12 16:17:38;;;;;;;5.30;2.90;;;;;;;;;;102789;1336;30226;-38
2023/01/12 16:20:19;;;;;;;5.10;2.90;;;;;;;;;;102771;1337;31065;-38
2023/01/12 16:22:53;;;;;;;6.30;2.90;;;;;;;;;;102846;1336;29704;-39
2023/01/12 16:25:27;;;;;;;6.00;3.20;;;;;;;;;;102822;1334;28648;-38
2023/01/12 16:28:02;;;;;;;5.60;3.10;;;;;;;;;;102866;1334;30329;-38
2023/01/12 16:30:36;;;;;;;5.00;2.90;;;;;;;;;;102844;1334;30614;-38
2023/01/12 16:33:16;;;;;;;5.30;2.70;;;;;;;;;;102829;1334;30271;-38
2023/01/12 16:35:56;;;;;;;5.80;3.00;;;;;;;;;;102775;1336;28964;-38
2023/01/12 16:38:34;;;;;;;5.80;3.10;;;;;;;;;;102782;1336;30327;-38
2023/01/12 16:41:14;;;;;;;5.80;3.30;;;;;;;;;;102780;1336;31115;-39
2023/01/12 16:43:51;;;;;;;6.20;3.20;;;;;;;;;;102766;1336;29541;-39